createdAt,value
2018-02-15T00:02:16.606Z,-1.33
2018-02-15T00:04:44.646Z,-1.33
2018-02-15T00:07:12.590Z,-1.36
2018-02-15T00:09:40.594Z,-1.28
2018-02-15T00:12:08.551Z,-1.39
2018-02-15T00:14:36.454Z,-1.44
2018-02-15T00:17:04.531Z,-1.44
2018-02-15T00:19:32.574Z,-1.49
2018-02-15T00:22:01.558Z,-1.58
2018-02-15T00:24:29.477Z,-1.55
2018-02-15T00:26:57.874Z,-1.62
2018-02-15T00:29:25.816Z,-1.67
2018-02-15T00:31:53.830Z,-1.61
2018-02-15T00:34:21.761Z,-1.76
2018-02-15T00:36:49.701Z,-1.83
2018-02-15T00:39:17.649Z,-1.80
2018-02-15T00:41:45.660Z,-1.97
2018-02-15T00:44:13.741Z,-1.89
2018-02-15T00:46:41.718Z,-1.83
2018-02-15T00:49:09.700Z,-1.93
2018-02-15T00:51:37.716Z,-1.80
2018-02-15T00:54:05.666Z,-1.99
2018-02-15T00:56:33.694Z,-2.03
2018-02-15T00:59:01.594Z,-1.93
2018-02-15T01:01:29.510Z,-2.00
2018-02-15T01:03:57.494Z,-2.12
2018-02-15T01:06:25.413Z,-2.06
2018-02-15T01:08:53.437Z,-2.17
2018-02-15T01:11:21.578Z,-2.18
2018-02-15T01:13:49.534Z,-2.15
2018-02-15T01:16:17.517Z,-2.09
2018-02-15T01:18:45.581Z,-2.23
2018-02-15T01:21:13.513Z,-2.32
2018-02-15T01:23:41.533Z,-2.33
2018-02-15T01:26:09.541Z,-2.30
2018-02-15T01:28:37.453Z,-2.21
2018-02-15T01:31:05.385Z,-2.06
2018-02-15T01:33:33.462Z,-2.23
2018-02-15T01:36:01.365Z,-2.20
2018-02-15T01:38:29.340Z,-2.26
2018-02-15T01:40:57.244Z,-2.35
2018-02-15T01:43:25.281Z,-2.34
2018-02-15T01:45:53.209Z,-2.46
2018-02-15T01:48:21.122Z,-2.38
2018-02-15T01:50:49.077Z,-2.44
2018-02-15T01:53:17.002Z,-2.46
2018-02-15T01:55:44.957Z,-2.43
2018-02-15T01:58:12.889Z,-2.50
2018-02-15T02:00:40.797Z,-2.49
2018-02-15T02:03:08.727Z,-2.45
2018-02-15T02:05:36.966Z,-2.42
2018-02-15T02:08:04.893Z,-2.44
2018-02-15T02:10:32.800Z,-2.39
2018-02-15T02:13:00.721Z,-2.47
2018-02-15T02:15:28.637Z,-2.33
2018-02-15T02:17:56.624Z,-2.38
2018-02-15T02:20:24.632Z,-2.39
2018-02-15T02:22:52.562Z,-2.45
2018-02-15T02:25:20.497Z,-2.46
2018-02-15T02:27:48.433Z,-2.58
2018-02-15T02:30:16.381Z,-2.59
2018-02-15T02:32:44.520Z,-2.60
2018-02-15T02:35:12.437Z,-2.69
2018-02-15T02:37:40.405Z,-2.60
2018-02-15T02:40:08.326Z,-2.69
2018-02-15T02:42:36.254Z,-2.67
2018-02-15T02:45:04.201Z,-2.78
2018-02-15T02:47:32.147Z,-2.74
2018-02-15T02:50:00.134Z,-2.74
2018-02-15T02:52:28.169Z,-2.61
2018-02-15T02:54:56.077Z,-2.67
2018-02-15T02:57:23.990Z,-2.66
2018-02-15T02:59:51.915Z,-2.74
2018-02-15T03:02:19.972Z,-2.77
2018-02-15T03:04:47.977Z,-2.68
2018-02-15T03:07:15.941Z,-2.73
2018-02-15T03:09:44.033Z,-2.71
2018-02-15T03:12:12.190Z,-2.76
2018-02-15T03:14:40.128Z,-2.79
2018-02-15T03:17:08.044Z,-2.64
2018-02-15T03:19:35.975Z,-2.71
2018-02-15T03:22:03.940Z,-2.67
2018-02-15T03:24:32.249Z,-2.77
2018-02-15T03:27:00.188Z,-2.76
2018-02-15T03:29:28.097Z,-2.74
2018-02-15T03:31:56.029Z,-2.79
2018-02-15T03:34:23.944Z,-2.86
2018-02-15T03:36:51.867Z,-2.84
2018-02-15T03:39:19.851Z,-2.78
2018-02-15T03:41:47.821Z,-2.84
2018-02-15T03:44:15.761Z,-2.74
2018-02-15T03:46:43.680Z,-2.73
2018-02-15T03:49:11.781Z,-2.76
2018-02-15T03:51:39.686Z,-2.69
2018-02-15T03:54:07.677Z,-2.79
2018-02-15T03:56:35.594Z,-2.78
2018-02-15T03:59:03.564Z,-2.82
2018-02-15T04:01:31.474Z,-2.69
2018-02-15T04:03:59.529Z,-2.66
2018-02-15T04:06:27.556Z,-2.61
2018-02-15T04:08:55.489Z,-2.67
2018-02-15T04:11:23.474Z,-2.65
2018-02-15T04:13:51.389Z,-2.67
2018-02-15T04:16:19.445Z,-2.73
2018-02-15T04:18:47.360Z,-2.72
2018-02-15T04:21:15.297Z,-2.73
2018-02-15T04:23:43.337Z,-2.78
2018-02-15T04:26:11.363Z,-2.83
2018-02-15T04:28:39.385Z,-2.76
2018-02-15T04:31:07.394Z,-2.67
2018-02-15T04:33:35.463Z,-2.74
2018-02-15T04:36:03.411Z,-2.75
2018-02-15T04:38:31.433Z,-2.77
2018-02-15T04:40:59.320Z,-2.68
2018-02-15T04:43:27.305Z,-2.77
2018-02-15T04:45:55.217Z,-2.83
2018-02-15T04:48:23.123Z,-2.81
2018-02-15T04:50:51.131Z,-2.74
2018-02-15T04:53:19.138Z,-2.81
2018-02-15T04:55:47.131Z,-2.69
2018-02-15T04:58:15.048Z,-2.78
2018-02-15T05:00:43.057Z,-2.73
2018-02-15T05:03:11.030Z,-2.65
2018-02-15T05:05:39.005Z,-2.71
2018-02-15T05:08:06.934Z,-2.65
2018-02-15T05:10:34.904Z,-2.74
2018-02-15T05:13:02.897Z,-2.67
2018-02-15T05:15:30.815Z,-2.73
2018-02-15T05:17:58.753Z,-2.72
2018-02-15T05:20:26.697Z,-2.69
2018-02-15T05:22:54.658Z,-2.69
2018-02-15T05:25:22.766Z,-2.69
2018-02-15T05:27:50.752Z,-2.74
2018-02-15T05:30:18.777Z,-2.64
2018-02-15T05:32:46.676Z,-2.76
2018-02-15T05:35:14.601Z,-2.68
2018-02-15T05:37:42.527Z,-2.77
2018-02-15T05:40:10.494Z,-2.71
2018-02-15T05:42:38.465Z,-2.64
2018-02-15T05:45:06.420Z,-2.63
2018-02-15T05:47:34.404Z,-2.65
2018-02-15T05:50:02.393Z,-2.71
2018-02-15T05:52:30.417Z,-2.65
2018-02-15T05:54:58.432Z,-2.61
2018-02-15T05:57:26.560Z,-2.69
2018-02-15T05:59:54.465Z,-2.71
2018-02-15T06:02:22.386Z,-2.49
2018-02-15T06:04:50.297Z,-2.71
2018-02-15T06:07:18.249Z,-2.61
2018-02-15T06:09:46.205Z,-2.72
2018-02-15T06:12:14.135Z,-2.81
2018-02-15T06:14:42.305Z,-2.72
2018-02-15T06:17:10.213Z,-2.80
2018-02-15T06:19:38.158Z,-2.80
2018-02-15T06:22:06.058Z,-2.79
2018-02-15T06:24:34.007Z,-2.77
2018-02-15T06:27:01.885Z,-2.69
2018-02-15T06:29:29.822Z,-2.75
2018-02-15T06:31:57.912Z,-2.77
2018-02-15T06:34:25.979Z,-2.78
2018-02-15T06:36:53.856Z,-2.78
2018-02-15T06:39:21.985Z,-2.65
2018-02-15T06:41:49.904Z,-2.64
2018-02-15T06:44:17.826Z,-2.71
2018-02-15T06:46:45.937Z,-2.68
2018-02-15T06:49:13.843Z,-2.65
2018-02-15T06:51:41.769Z,-2.63
2018-02-15T06:54:09.716Z,-2.61
2018-02-15T06:56:37.621Z,-2.64
2018-02-15T06:59:05.585Z,-2.60
2018-02-15T07:01:33.489Z,-2.61
2018-02-15T07:04:01.409Z,-2.61
2018-02-15T07:06:29.349Z,-2.58
2018-02-15T07:08:57.417Z,-2.53
2018-02-15T07:11:25.333Z,-2.62
2018-02-15T07:13:53.317Z,-2.59
2018-02-15T07:16:21.326Z,-2.38
2018-02-15T07:18:49.310Z,-2.42
2018-02-15T07:21:17.239Z,-2.48
2018-02-15T07:23:45.287Z,-2.31
2018-02-15T07:26:13.217Z,-2.37
2018-02-15T07:28:41.134Z,-2.28
2018-02-15T07:31:09.060Z,-2.26
2018-02-15T07:33:37.025Z,-2.23
2018-02-15T07:36:05.171Z,-2.26
2018-02-15T07:38:33.064Z,-2.10
2018-02-15T07:41:00.961Z,-2.15
2018-02-15T07:43:28.885Z,-2.17
2018-02-15T07:45:56.807Z,-2.14
2018-02-15T07:48:24.733Z,-2.20
2018-02-15T07:50:52.651Z,-2.22
2018-02-15T07:53:21.397Z,-2.19
2018-02-15T07:55:49.322Z,-2.08
2018-02-15T07:58:17.237Z,-2.14
2018-02-15T08:00:45.217Z,-2.12
2018-02-15T08:03:13.130Z,-2.12
2018-02-15T08:05:41.056Z,-2.05
2018-02-15T08:08:09.400Z,-1.97
2018-02-15T08:10:38.108Z,-1.97
2018-02-15T08:13:06.052Z,-2.02
2018-02-15T08:15:34.109Z,-1.97
2018-02-15T08:18:02.105Z,-1.88
2018-02-15T08:20:30.356Z,-1.88
2018-02-15T08:22:58.278Z,-1.72
2018-02-15T08:25:26.273Z,-1.71
2018-02-15T08:27:54.237Z,-1.65
2018-02-15T08:30:22.189Z,-1.61
2018-02-15T08:32:50.193Z,-1.46
2018-02-15T08:35:18.144Z,-0.26
2018-02-15T08:37:46.067Z,-0.31
2018-02-15T08:40:13.989Z,-0.82
2018-02-15T08:42:41.917Z,-1.04
2018-02-15T08:45:09.963Z,-0.98
2018-02-15T08:47:37.917Z,-1.15
2018-02-15T08:50:05.901Z,-1.23
2018-02-15T08:52:33.884Z,-1.18
2018-02-15T08:55:01.796Z,-1.02
2018-02-15T08:57:29.720Z,-1.14
2018-02-15T08:59:57.650Z,-1.15
2018-02-15T09:02:25.574Z,-1.21
2018-02-15T09:04:53.590Z,-1.19
2018-02-15T09:07:21.560Z,-1.27
2018-02-15T09:09:49.475Z,-1.21
2018-02-15T09:12:17.482Z,-1.10
2018-02-15T09:14:46.169Z,-1.15
2018-02-15T09:17:14.165Z,-1.08
2018-02-15T09:19:42.160Z,-0.95
2018-02-15T09:22:10.173Z,-0.69
2018-02-15T09:24:38.457Z,-0.76
2018-02-15T09:27:06.386Z,-0.71
2018-02-15T09:29:34.317Z,-0.39
2018-02-15T09:32:02.237Z,-0.13
2018-02-15T09:34:30.195Z,-0.07
2018-02-15T09:36:58.564Z,-0.00
2018-02-15T09:39:26.490Z,-0.07
2018-02-15T09:41:54.399Z,-0.10
2018-02-15T09:44:22.369Z,0.25
2018-02-15T09:46:50.266Z,-0.00
2018-02-15T09:49:18.196Z,0.19
2018-02-15T09:51:46.116Z,-0.06
2018-02-15T09:54:14.051Z,-0.19
2018-02-15T09:56:41.971Z,-0.20
2018-02-15T09:59:09.977Z,-0.21
2018-02-15T10:01:37.889Z,-0.05
2018-02-15T10:04:05.857Z,-0.27
2018-02-15T10:06:33.874Z,-0.01
2018-02-15T10:09:01.820Z,-0.09
2018-02-15T10:11:29.731Z,0.16
2018-02-15T10:13:57.677Z,0.05
2018-02-15T10:16:25.627Z,0.09
2018-02-15T10:18:53.552Z,0.35
2018-02-15T10:21:21.837Z,0.36
2018-02-15T10:23:49.765Z,0.29
2018-02-15T10:26:17.681Z,0.53
2018-02-15T10:28:45.607Z,0.80
2018-02-15T10:31:13.597Z,0.80
2018-02-15T10:33:41.530Z,0.58
2018-02-15T10:36:09.450Z,0.55
2018-02-15T10:38:37.384Z,0.74
2018-02-15T10:41:05.298Z,0.74
2018-02-15T10:43:33.225Z,0.81
2018-02-15T10:46:01.293Z,0.78
2018-02-15T10:48:29.296Z,0.64
2018-02-15T10:50:57.226Z,0.71
2018-02-15T10:53:25.148Z,0.42
2018-02-15T10:55:53.065Z,0.48
2018-02-15T10:58:20.973Z,0.42
2018-02-15T11:00:54.597Z,0.67
2018-02-15T11:03:28.258Z,0.74
2018-02-15T11:06:00.032Z,0.78
2018-02-15T11:08:27.948Z,0.96
2018-02-15T11:10:55.934Z,0.99
2018-02-15T11:13:23.872Z,0.88
2018-02-15T11:15:51.781Z,0.86
2018-02-15T11:18:19.704Z,0.72
2018-02-15T11:20:47.825Z,0.73
2018-02-15T11:23:15.738Z,0.93
2018-02-15T11:25:43.708Z,0.82
2018-02-15T11:28:11.648Z,0.90
2018-02-15T11:30:39.585Z,0.80
2018-02-15T11:33:07.514Z,0.76
2018-02-15T11:35:35.417Z,0.77
2018-02-15T11:38:03.330Z,0.72
2018-02-15T11:40:31.259Z,0.79
2018-02-15T11:42:59.177Z,0.90
2018-02-15T11:45:27.119Z,0.93
2018-02-15T11:47:55.517Z,1.01
2018-02-15T11:50:23.512Z,1.09
2018-02-15T11:52:51.405Z,0.94
2018-02-15T11:55:19.325Z,0.95
2018-02-15T11:57:47.297Z,1.20
2018-02-15T12:00:15.249Z,1.29
2018-02-15T12:02:43.197Z,1.49
2018-02-15T12:05:11.163Z,1.43
2018-02-15T12:07:39.024Z,1.45
2018-02-15T12:10:06.956Z,2.14
2018-02-15T12:12:34.896Z,2.43
2018-02-15T12:15:02.822Z,2.00
2018-02-15T12:17:30.829Z,1.88
2018-02-15T12:19:58.800Z,1.69
2018-02-15T12:22:26.717Z,1.48
2018-02-15T12:24:54.701Z,1.60
2018-02-15T12:27:22.749Z,1.55
2018-02-15T12:29:50.645Z,1.64
2018-02-15T12:32:18.562Z,1.52
2018-02-15T12:34:46.485Z,1.48
2018-02-15T12:37:14.573Z,1.46
2018-02-15T12:39:42.521Z,1.50
2018-02-15T12:42:10.561Z,1.49
2018-02-15T12:44:38.577Z,1.45
2018-02-15T12:47:06.532Z,1.45
2018-02-15T12:49:34.467Z,1.47
2018-02-15T12:52:02.373Z,1.49
2018-02-15T12:54:30.294Z,1.63
2018-02-15T12:56:59.057Z,1.52
2018-02-15T12:59:26.965Z,1.60
2018-02-15T13:01:54.881Z,1.45
2018-02-15T13:04:22.798Z,1.38
2018-02-15T13:06:50.848Z,1.48
2018-02-15T13:09:18.771Z,1.47
2018-02-15T13:11:46.688Z,1.48
2018-02-15T13:14:14.603Z,1.48
2018-02-15T13:16:59.114Z,1.58
2018-02-15T13:19:38.892Z,1.61
2018-02-15T13:25:02.133Z,1.71
2018-02-15T13:27:41.969Z,1.73
2018-02-15T13:30:09.879Z,1.69
2018-02-15T13:32:37.809Z,1.79
2018-02-15T13:35:05.728Z,1.66
2018-02-15T13:37:33.635Z,1.64
2018-02-15T13:40:01.573Z,1.60
2018-02-15T13:42:29.490Z,1.65
2018-02-15T13:44:57.560Z,1.67
2018-02-15T13:47:25.537Z,1.57
2018-02-15T13:49:53.457Z,1.66
2018-02-15T13:52:21.438Z,1.67
2018-02-15T13:54:49.343Z,1.73
2018-02-15T13:57:17.253Z,1.54
2018-02-15T13:59:45.191Z,1.64
2018-02-15T14:02:13.112Z,1.57
2018-02-15T14:04:41.024Z,1.52
2018-02-15T14:07:08.936Z,1.50
2018-02-15T14:09:36.910Z,1.43
2018-02-15T14:12:04.828Z,1.53
2018-02-15T14:14:32.758Z,1.68
2018-02-15T14:17:00.666Z,1.58
2018-02-15T14:19:28.609Z,1.65
2018-02-15T14:21:56.672Z,1.62
2018-02-15T14:24:24.573Z,1.67
2018-02-15T14:26:52.481Z,1.77
2018-02-15T14:29:20.576Z,1.70
2018-02-15T14:31:48.576Z,1.64
2018-02-15T14:34:16.477Z,1.62
2018-02-15T14:36:44.441Z,1.65
2018-02-15T14:39:12.345Z,1.64
2018-02-15T14:41:40.273Z,1.66
2018-02-15T14:44:08.182Z,1.68
2018-02-15T14:46:36.154Z,1.69
2018-02-15T14:49:04.060Z,1.76
2018-02-15T14:51:31.974Z,1.69
2018-02-15T14:54:00.536Z,1.66
2018-02-15T14:56:29.290Z,1.70
2018-02-15T14:58:57.196Z,1.69
2018-02-15T15:01:25.123Z,1.64
2018-02-15T15:03:53.028Z,1.71
2018-02-15T15:06:20.933Z,1.67
2018-02-15T15:08:48.866Z,1.64
2018-02-15T15:11:16.773Z,1.58
2018-02-15T15:13:44.701Z,1.64
2018-02-15T15:16:12.609Z,1.56
2018-02-15T15:18:40.630Z,1.58
2018-02-15T15:21:08.647Z,1.51
2018-02-15T15:23:36.585Z,1.60
2018-02-15T15:26:04.501Z,1.55
2018-02-15T15:28:32.427Z,1.47
2018-02-15T15:31:00.439Z,1.47
2018-02-15T15:33:28.507Z,1.50
2018-02-15T15:35:57.254Z,1.46
2018-02-15T15:38:25.167Z,1.47
2018-02-15T15:40:53.085Z,1.40
2018-02-15T15:43:21.773Z,1.32
2018-02-15T15:45:49.716Z,1.37
2018-02-15T15:48:18.280Z,1.35
2018-02-15T15:50:46.218Z,1.27
2018-02-15T15:53:14.164Z,1.33
2018-02-15T15:55:42.092Z,1.27
2018-02-15T15:58:10.013Z,1.29
2018-02-15T16:00:37.967Z,1.28
2018-02-15T16:03:05.865Z,1.28
2018-02-15T16:05:33.796Z,1.23
2018-02-15T16:08:01.726Z,1.28
2018-02-15T16:10:29.621Z,1.20
2018-02-15T16:12:57.558Z,1.18
2018-02-15T16:15:25.473Z,1.19
2018-02-15T16:17:53.398Z,1.19
2018-02-15T16:20:21.321Z,1.12
2018-02-15T16:22:49.358Z,1.19
2018-02-15T16:25:17.245Z,1.06
2018-02-15T16:27:45.158Z,1.21
2018-02-15T16:30:13.099Z,1.19
2018-02-15T16:32:41.015Z,1.14
2018-02-15T16:35:09.043Z,1.12
2018-02-15T16:37:37.046Z,1.10
2018-02-15T16:40:05.009Z,1.18
2018-02-15T16:42:32.947Z,1.21
2018-02-15T16:45:00.849Z,1.12
2018-02-15T16:47:28.782Z,1.27
2018-02-15T16:49:56.701Z,1.24
2018-02-15T16:52:24.766Z,1.17
2018-02-15T16:54:52.693Z,1.26
2018-02-15T16:57:20.615Z,1.26
2018-02-15T16:59:48.525Z,1.32
2018-02-15T17:02:16.455Z,1.23
2018-02-15T17:04:44.397Z,1.21
2018-02-15T17:07:12.319Z,1.34
2018-02-15T17:09:40.235Z,1.16
2018-02-15T17:12:08.149Z,1.26
2018-02-15T17:14:36.073Z,1.24
2018-02-15T17:17:03.991Z,1.25
2018-02-15T17:19:31.939Z,1.20
2018-02-15T17:21:59.874Z,1.25
2018-02-15T17:24:27.772Z,1.24
2018-02-15T17:26:55.693Z,1.19
2018-02-15T17:29:23.756Z,1.23
2018-02-15T17:31:51.773Z,1.13
2018-02-15T17:34:19.710Z,1.11
2018-02-15T17:36:47.602Z,1.10
2018-02-15T17:39:15.529Z,1.13
2018-02-15T17:41:43.442Z,1.12
2018-02-15T17:44:11.509Z,1.06
2018-02-15T17:46:39.625Z,1.06
2018-02-15T17:49:07.585Z,1.10
2018-02-15T17:51:35.517Z,1.05
2018-02-15T17:54:03.437Z,1.18
2018-02-15T17:56:31.381Z,1.17
2018-02-15T17:58:59.323Z,1.13
2018-02-15T18:01:27.285Z,1.24
2018-02-15T18:03:55.217Z,1.13
2018-02-15T18:06:23.166Z,1.18
2018-02-15T18:08:51.283Z,1.18
2018-02-15T18:11:19.216Z,1.16
2018-02-15T18:13:47.342Z,1.18
2018-02-15T18:16:15.388Z,1.13
2018-02-15T18:18:43.387Z,1.18
2018-02-15T18:21:11.409Z,1.14
2018-02-15T18:23:39.870Z,1.09
2018-02-15T18:26:07.822Z,1.17
2018-02-15T18:28:35.764Z,0.94
2018-02-15T18:31:03.674Z,1.03
2018-02-15T18:33:31.627Z,0.97
2018-02-15T18:35:59.741Z,0.90
2018-02-15T18:38:27.800Z,1.01
2018-02-15T18:40:55.744Z,0.88
2018-02-15T18:43:23.649Z,0.88
2018-02-15T18:45:51.585Z,0.91
2018-02-15T18:48:19.526Z,0.88
2018-02-15T18:50:47.528Z,0.89
2018-02-15T18:53:15.534Z,0.84
2018-02-15T18:55:43.480Z,0.82
2018-02-15T18:58:11.445Z,0.86
2018-02-15T19:00:39.418Z,0.77
2018-02-15T19:03:07.365Z,0.72
2018-02-15T19:05:35.314Z,0.78
2018-02-15T19:08:03.260Z,0.72
2018-02-15T19:10:31.311Z,0.78
2018-02-15T19:12:59.254Z,0.89
2018-02-15T19:15:27.166Z,0.73
2018-02-15T19:17:55.209Z,0.64
2018-02-15T19:20:23.200Z,0.71
2018-02-15T19:22:51.122Z,0.77
2018-02-15T19:25:19.058Z,0.78
2018-02-15T19:27:46.994Z,0.79
2018-02-15T19:30:14.986Z,0.78
2018-02-15T19:32:43.123Z,0.83
2018-02-15T19:35:11.144Z,0.68
2018-02-15T19:37:39.168Z,0.78
2018-02-15T19:40:07.157Z,0.81
2018-02-15T19:42:35.115Z,0.79
2018-02-15T19:45:03.259Z,0.74
2018-02-15T19:47:31.160Z,0.69
2018-02-15T19:49:59.126Z,0.81
2018-02-15T19:52:27.042Z,0.83
2018-02-15T19:54:55.438Z,0.76
2018-02-15T19:57:23.563Z,0.97
2018-02-15T19:59:51.526Z,0.86
2018-02-15T20:02:19.543Z,0.86
2018-02-15T20:04:47.567Z,0.83
2018-02-15T20:07:16.305Z,0.76
2018-02-15T20:09:44.210Z,0.79
2018-02-15T20:12:12.224Z,0.68
2018-02-15T20:14:40.317Z,0.74
2018-02-15T20:17:08.255Z,0.79
2018-02-15T20:19:36.190Z,0.79
2018-02-15T20:22:04.110Z,0.73
2018-02-15T20:24:32.115Z,0.73
2018-02-15T20:27:05.612Z,0.68
2018-02-15T20:29:33.562Z,0.77
2018-02-15T20:32:01.661Z,0.60
2018-02-15T20:34:29.688Z,0.73
2018-02-15T20:36:57.608Z,0.68
2018-02-15T20:39:31.131Z,0.66
2018-02-15T20:41:59.043Z,0.74
2018-02-15T20:44:26.976Z,0.72
2018-02-15T20:46:54.986Z,0.78
2018-02-15T20:49:28.430Z,0.72
2018-02-15T20:52:02.121Z,0.78
2018-02-15T20:54:35.650Z,0.87
2018-02-15T20:57:03.574Z,0.83
2018-02-15T20:59:31.489Z,0.86
2018-02-15T21:01:59.517Z,1.01
2018-02-15T21:04:27.493Z,0.89
2018-02-15T21:06:55.537Z,0.97
2018-02-15T21:09:23.461Z,1.01
2018-02-15T21:11:51.474Z,0.93
2018-02-15T21:14:19.408Z,0.91
2018-02-15T21:16:47.351Z,1.09
2018-02-15T21:19:15.259Z,1.04
2018-02-15T21:21:43.195Z,1.06
2018-02-15T21:24:11.209Z,1.14
2018-02-15T21:26:39.121Z,1.16
2018-02-15T21:29:07.302Z,1.16
2018-02-15T21:31:35.225Z,1.13
2018-02-15T21:34:03.225Z,1.11
2018-02-15T21:36:31.163Z,1.20
2018-02-15T21:38:59.095Z,1.25
2018-02-15T21:41:27.013Z,1.25
2018-02-15T21:43:54.942Z,1.17
2018-02-15T21:46:22.934Z,1.19
2018-02-15T21:48:50.846Z,1.24
2018-02-15T21:51:18.867Z,1.25
2018-02-15T21:53:46.776Z,1.23
2018-02-15T21:56:14.759Z,1.20
2018-02-15T21:58:42.676Z,1.28
2018-02-15T22:01:10.926Z,1.18
2018-02-15T22:03:38.858Z,1.29
2018-02-15T22:06:06.825Z,1.19
2018-02-15T22:08:34.812Z,1.34
2018-02-15T22:11:02.831Z,1.28
2018-02-15T22:13:30.742Z,1.25
2018-02-15T22:15:58.700Z,1.26
2018-02-15T22:18:26.606Z,1.34
2018-02-15T22:20:54.729Z,1.39
2018-02-15T22:23:22.641Z,1.25
2018-02-15T22:25:50.553Z,1.26
2018-02-15T22:28:18.661Z,1.25
2018-02-15T22:30:46.585Z,1.21
2018-02-15T22:33:14.543Z,1.34
2018-02-15T22:35:42.570Z,1.28
2018-02-15T22:38:10.657Z,1.20
2018-02-15T22:40:38.624Z,1.23
2018-02-15T22:43:06.670Z,1.34
2018-02-15T22:45:34.607Z,1.37
2018-02-15T22:48:02.609Z,1.46
2018-02-15T22:50:30.582Z,1.46
2018-02-15T22:52:58.514Z,1.48
2018-02-15T22:55:26.442Z,1.62
2018-02-15T22:57:54.439Z,1.55
2018-02-15T23:00:22.369Z,1.48
2018-02-15T23:02:50.963Z,1.61
2018-02-15T23:05:18.874Z,1.55
2018-02-15T23:07:46.968Z,1.56
2018-02-15T23:10:14.868Z,1.68
2018-02-15T23:12:42.785Z,1.56
2018-02-15T23:15:10.781Z,1.73
2018-02-15T23:17:38.723Z,1.66
2018-02-15T23:20:06.637Z,1.70
2018-02-15T23:22:34.645Z,1.76
2018-02-15T23:25:02.560Z,1.91
2018-02-15T23:27:30.518Z,1.88
2018-02-15T23:29:58.539Z,1.83
2018-02-15T23:32:26.430Z,1.82
2018-02-15T23:34:54.405Z,1.95
2018-02-15T23:37:22.640Z,1.82
2018-02-15T23:39:50.585Z,1.96
2018-02-15T23:42:18.492Z,1.98
2018-02-15T23:44:46.421Z,1.88
2018-02-15T23:47:14.552Z,2.00
2018-02-15T23:49:42.442Z,1.96
2018-02-15T23:52:10.392Z,2.02
2018-02-15T23:54:38.397Z,2.06
2018-02-15T23:57:06.505Z,2.02
2018-02-15T23:59:34.493Z,2.01
